sensor_id;sensor_type;location;lat;lon;timestamp;pressure;altitude;pressure_sealevel;temperature;humidity
60019;BME280;45870;42.528;26.740;2022-11-18T00:00:52;98701.75;;;14.15;54.48
60019;BME280;45870;42.528;26.740;2022-11-18T00:03:18;98689.50;;;14.23;54.35
60019;BME280;45870;42.528;26.740;2022-11-18T00:05:54;98703.00;;;14.33;54.53
60019;BME280;45870;42.528;26.740;2022-11-18T00:08:21;98703.13;;;15.14;52.41
60019;BME280;45870;42.528;26.740;2022-11-18T00:10:47;98702.06;;;15.86;51.09
60019;BME280;45870;42.528;26.740;2022-11-18T00:13:13;98699.03;;;15.88;50.85
60019;BME280;45870;42.528;26.740;2022-11-18T00:16:03;98631.53;;;15.90;49.89
60019;BME280;45870;42.528;26.740;2022-11-18T00:18:29;98705.22;;;16.49;49.56
60019;BME280;45870;42.528;26.740;2022-11-18T00:21:00;98703.56;;;16.99;48.29
60019;BME280;45870;42.528;26.740;2022-11-18T00:23:26;98709.63;;;16.96;47.99
60019;BME280;45870;42.528;26.740;2022-11-18T00:25:51;98727.47;;;16.89;48.36
60019;BME280;45870;42.528;26.740;2022-11-18T00:28:17;98705.56;;;16.80;48.32
60019;BME280;45870;42.528;26.740;2022-11-18T00:30:43;98706.47;;;16.01;50.24
60019;BME280;45870;42.528;26.740;2022-11-18T00:33:09;98712.00;;;16.71;48.53
60019;BME280;45870;42.528;26.740;2022-11-18T00:35:34;98645.34;;;16.12;48.53
60019;BME280;45870;42.528;26.740;2022-11-18T00:38:00;98713.56;;;16.90;48.35
60019;BME280;45870;42.528;26.740;2022-11-18T00:40:26;98719.03;;;16.72;48.15
60019;BME280;45870;42.528;26.740;2022-11-18T00:42:51;98707.09;;;16.86;48.29
60019;BME280;45870;42.528;26.740;2022-11-18T00:45:19;98713.34;;;16.87;47.18
60019;BME280;45870;42.528;26.740;2022-11-18T00:47:45;98712.88;;;16.98;47.25
60019;BME280;45870;42.528;26.740;2022-11-18T00:50:11;98713.31;;;17.06;46.77
60019;BME280;45870;42.528;26.740;2022-11-18T00:52:37;98717.94;;;17.05;47.00
60019;BME280;45870;42.528;26.740;2022-11-18T00:55:03;98713.97;;;16.65;48.15
60019;BME280;45870;42.528;26.740;2022-11-18T00:57:29;98715.88;;;16.65;48.77
60019;BME280;45870;42.528;26.740;2022-11-18T00:59:54;98712.63;;;16.81;47.56
60019;BME280;45870;42.528;26.740;2022-11-18T01:02:20;98697.44;;;16.24;48.51
60019;BME280;45870;42.528;26.740;2022-11-18T01:04:46;98729.22;;;16.66;47.09
60019;BME280;45870;42.528;26.740;2022-11-18T01:07:12;98724.22;;;16.17;48.35
60019;BME280;45870;42.528;26.740;2022-11-18T01:09:37;98733.75;;;15.96;48.99
60019;BME280;45870;42.528;26.740;2022-11-18T01:12:03;98671.84;;;14.93;50.76
60019;BME280;45870;42.528;26.740;2022-11-18T01:14:48;98555.03;;;14.64;49.72
60019;BME280;45870;42.528;26.740;2022-11-18T01:17:13;98664.97;;;15.00;50.35
60019;BME280;45870;42.528;26.740;2022-11-18T01:19:39;98671.47;;;15.76;48.62
60019;BME280;45870;42.528;26.740;2022-11-18T01:22:05;98719.22;;;16.24;47.38
60019;BME280;45870;42.528;26.740;2022-11-18T01:24:32;98719.00;;;16.21;48.10
60019;BME280;45870;42.528;26.740;2022-11-18T01:26:59;98680.44;;;15.95;47.88
60019;BME280;45870;42.528;26.740;2022-11-18T01:29:25;98681.41;;;16.04;47.36
60019;BME280;45870;42.528;26.740;2022-11-18T01:31:51;98703.84;;;15.96;47.76
60019;BME280;45870;42.528;26.740;2022-11-18T01:34:16;98676.31;;;15.97;47.57
60019;BME280;45870;42.528;26.740;2022-11-18T01:36:42;98695.34;;;15.97;47.82
60019;BME280;45870;42.528;26.740;2022-11-18T01:39:08;98707.06;;;15.56;47.74
60019;BME280;45870;42.528;26.740;2022-11-18T01:41:33;98689.69;;;14.36;50.65
60019;BME280;45870;42.528;26.740;2022-11-18T01:44:02;98715.59;;;14.58;50.95
60019;BME280;45870;42.528;26.740;2022-11-18T01:46:30;98710.53;;;15.61;47.99
60019;BME280;45870;42.528;26.740;2022-11-18T01:49:05;98685.75;;;15.63;47.28
60019;BME280;45870;42.528;26.740;2022-11-18T01:51:48;98693.72;;;15.78;48.02
60019;BME280;45870;42.528;26.740;2022-11-18T01:54:25;98696.03;;;15.89;47.70
60019;BME280;45870;42.528;26.740;2022-11-18T01:56:54;98690.81;;;15.51;47.54
60019;BME280;45870;42.528;26.740;2022-11-18T01:59:24;98652.19;;;15.48;47.64
60019;BME280;45870;42.528;26.740;2022-11-18T02:01:51;98689.72;;;16.13;47.20
60019;BME280;45870;42.528;26.740;2022-11-18T02:04:19;98697.66;;;16.09;47.49
60019;BME280;45870;42.528;26.740;2022-11-18T02:06:48;98691.19;;;16.42;46.69
60019;BME280;45870;42.528;26.740;2022-11-18T02:09:14;98651.81;;;15.79;47.23
60019;BME280;45870;42.528;26.740;2022-11-18T02:11:41;98694.63;;;16.29;47.71
60019;BME280;45870;42.528;26.740;2022-11-18T02:25:20;98705.59;;;15.16;50.43
60019;BME280;45870;42.528;26.740;2022-11-18T02:30:23;98702.34;;;16.22;48.05
60019;BME280;45870;42.528;26.740;2022-11-18T02:33:06;98710.69;;;16.49;47.10
60019;BME280;45870;42.528;26.740;2022-11-18T02:35:53;98710.44;;;16.65;47.28
60019;BME280;45870;42.528;26.740;2022-11-18T02:38:28;98678.25;;;15.97;48.54
60019;BME280;45870;42.528;26.740;2022-11-18T02:41:08;98716.22;;;16.63;48.09
60019;BME280;45870;42.528;26.740;2022-11-18T02:43:44;98707.69;;;16.83;47.66
60019;BME280;45870;42.528;26.740;2022-11-18T02:46:15;98669.16;;;16.58;46.79
60019;BME280;45870;42.528;26.740;2022-11-18T02:48:47;98703.09;;;16.65;47.37
60019;BME280;45870;42.528;26.740;2022-11-18T02:51:17;98686.97;;;16.31;48.19
60019;BME280;45870;42.528;26.740;2022-11-18T02:53:46;98669.84;;;16.31;47.50
60019;BME280;45870;42.528;26.740;2022-11-18T02:56:14;98687.75;;;16.18;48.25
60019;BME280;45870;42.528;26.740;2022-11-18T02:58:41;98704.13;;;16.13;48.02
60019;BME280;45870;42.528;26.740;2022-11-18T03:01:15;98682.78;;;16.20;47.66
60019;BME280;45870;42.528;26.740;2022-11-18T03:03:43;98713.63;;;16.53;47.24
60019;BME280;45870;42.528;26.740;2022-11-18T03:08:50;98693.31;;;16.27;46.99
60019;BME280;45870;42.528;26.740;2022-11-18T03:11:21;98700.22;;;16.38;47.28
60019;BME280;45870;42.528;26.740;2022-11-18T03:13:57;98712.72;;;16.58;47.08
60019;BME280;45870;42.528;26.740;2022-11-18T03:16:37;98719.94;;;16.30;47.68
60019;BME280;45870;42.528;26.740;2022-11-18T03:19:12;98700.31;;;16.14;47.59
60019;BME280;45870;42.528;26.740;2022-11-18T03:21:51;98746.88;;;16.13;47.21
60019;BME280;45870;42.528;26.740;2022-11-18T03:24:26;98731.63;;;15.93;47.65
60019;BME280;45870;42.528;26.740;2022-11-18T03:27:02;98724.38;;;16.07;47.16
60019;BME280;45870;42.528;26.740;2022-11-18T03:29:35;98720.34;;;15.81;47.69
60019;BME280;45870;42.528;26.740;2022-11-18T03:32:08;98621.44;;;15.29;47.74
60019;BME280;45870;42.528;26.740;2022-11-18T03:34:44;98643.84;;;14.92;48.45
60019;BME280;45870;42.528;26.740;2022-11-18T03:37:13;98717.75;;;15.47;48.46
60019;BME280;45870;42.528;26.740;2022-11-18T03:39:44;98715.22;;;15.56;48.05
60019;BME280;45870;42.528;26.740;2022-11-18T03:42:24;98716.84;;;15.57;48.28
60019;BME280;45870;42.528;26.740;2022-11-18T03:44:56;98709.59;;;15.71;48.05
60019;BME280;45870;42.528;26.740;2022-11-18T03:47:31;98661.22;;;15.20;48.58
60019;BME280;45870;42.528;26.740;2022-11-18T03:50:07;98522.81;;;14.58;47.80
60019;BME280;45870;42.528;26.740;2022-11-18T03:52:38;98700.84;;;15.26;48.90
60019;BME280;45870;42.528;26.740;2022-11-18T03:55:10;98617.28;;;14.27;49.91
60019;BME280;45870;42.528;26.740;2022-11-18T04:00:16;98547.56;;;14.22;49.32
60019;BME280;45870;42.528;26.740;2022-11-18T04:02:43;98714.56;;;15.16;49.23
60019;BME280;45870;42.528;26.740;2022-11-18T04:05:12;98715.44;;;15.07;49.54
60019;BME280;45870;42.528;26.740;2022-11-18T04:07:59;98717.97;;;15.27;48.75
60019;BME280;45870;42.528;26.740;2022-11-18T04:13:16;98716.84;;;15.57;47.86
60019;BME280;45870;42.528;26.740;2022-11-18T04:15:43;98730.41;;;15.33;48.09
60019;BME280;45870;42.528;26.740;2022-11-18T04:18:09;98727.97;;;15.31;47.90
60019;BME280;45870;42.528;26.740;2022-11-18T04:20:35;98705.13;;;15.32;47.42
60019;BME280;45870;42.528;26.740;2022-11-18T04:23:03;98714.56;;;14.87;48.59
60019;BME280;45870;42.528;26.740;2022-11-18T04:25:29;98712.03;;;15.48;46.74
60019;BME280;45870;42.528;26.740;2022-11-18T04:27:55;98725.25;;;15.31;47.73
60019;BME280;45870;42.528;26.740;2022-11-18T04:30:21;98665.78;;;15.01;47.14
60019;BME280;45870;42.528;26.740;2022-11-18T04:32:47;98724.19;;;15.56;47.22
60019;BME280;45870;42.528;26.740;2022-11-18T04:35:13;98723.44;;;15.51;46.99
60019;BME280;45870;42.528;26.740;2022-11-18T04:37:39;98722.22;;;15.62;46.93
60019;BME280;45870;42.528;26.740;2022-11-18T04:40:05;98721.81;;;15.49;47.76
60019;BME280;45870;42.528;26.740;2022-11-18T04:42:31;98710.44;;;15.42;47.68
60019;BME280;45870;42.528;26.740;2022-11-18T04:44:57;98731.59;;;15.51;47.55
60019;BME280;45870;42.528;26.740;2022-11-18T04:47:22;98725.66;;;15.43;47.71
60019;BME280;45870;42.528;26.740;2022-11-18T04:49:48;98696.75;;;15.29;47.69
60019;BME280;45870;42.528;26.740;2022-11-18T04:52:14;98654.28;;;15.33;46.23
60019;BME280;45870;42.528;26.740;2022-11-18T04:54:42;98722.38;;;14.16;50.50
60019;BME280;45870;42.528;26.740;2022-11-18T04:57:08;98650.44;;;14.86;48.37
60019;BME280;45870;42.528;26.740;2022-11-18T04:59:34;98713.25;;;15.37;47.50
60019;BME280;45870;42.528;26.740;2022-11-18T05:02:00;98720.81;;;15.40;47.65
60019;BME280;45870;42.528;26.740;2022-11-18T05:04:29;98731.22;;;15.81;46.65
60019;BME280;45870;42.528;26.740;2022-11-18T05:06:55;98726.97;;;15.75;47.18
60019;BME280;45870;42.528;26.740;2022-11-18T05:09:21;98737.50;;;15.81;46.84
60019;BME280;45870;42.528;26.740;2022-11-18T05:11:48;98731.53;;;15.56;47.77
60019;BME280;45870;42.528;26.740;2022-11-18T05:14:33;98616.25;;;15.09;47.13
60019;BME280;45870;42.528;26.740;2022-11-18T05:17:00;98735.03;;;15.80;47.71
60019;BME280;45870;42.528;26.740;2022-11-18T05:19:27;98745.00;;;15.89;47.39
60019;BME280;45870;42.528;26.740;2022-11-18T05:21:53;98583.22;;;14.97;46.66
60019;BME280;45870;42.528;26.740;2022-11-18T05:24:19;98755.06;;;14.84;50.02
60019;BME280;45870;42.528;26.740;2022-11-18T05:26:45;98758.84;;;12.90;55.48
60019;BME280;45870;42.528;26.740;2022-11-18T05:29:11;98750.56;;;13.66;53.57
60019;BME280;45870;42.528;26.740;2022-11-18T05:31:37;98749.84;;;12.24;58.14
60019;BME280;45870;42.528;26.740;2022-11-18T05:34:03;98744.84;;;13.78;54.19
60019;BME280;45870;42.528;26.740;2022-11-18T05:36:29;98735.78;;;14.46;52.11
60019;BME280;45870;42.528;26.740;2022-11-18T05:38:58;98750.47;;;15.89;48.55
60019;BME280;45870;42.528;26.740;2022-11-18T05:41:23;98740.38;;;15.66;49.05
60019;BME280;45870;42.528;26.740;2022-11-18T05:44:07;98737.00;;;15.98;48.68
60019;BME280;45870;42.528;26.740;2022-11-18T05:46:33;98687.28;;;16.11;48.50
60019;BME280;45870;42.528;26.740;2022-11-18T05:48:59;98753.59;;;16.76;47.36
60019;BME280;45870;42.528;26.740;2022-11-18T05:51:25;98754.47;;;16.53;47.91
60019;BME280;45870;42.528;26.740;2022-11-18T05:53:51;98707.69;;;15.71;49.00
60019;BME280;45870;42.528;26.740;2022-11-18T05:56:28;98699.03;;;16.63;47.22
60019;BME280;45870;42.528;26.740;2022-11-18T05:58:55;98723.97;;;16.88;47.25
60019;BME280;45870;42.528;26.740;2022-11-18T06:03:54;98750.28;;;17.25;47.15
60019;BME280;45870;42.528;26.740;2022-11-18T06:06:21;98698.28;;;16.76;47.09
60019;BME280;45870;42.528;26.740;2022-11-18T06:08:56;98757.81;;;17.01;48.09
60019;BME280;45870;42.528;26.740;2022-11-18T06:11:22;98753.72;;;16.47;47.89
60019;BME280;45870;42.528;26.740;2022-11-18T06:13:59;98758.66;;;16.64;48.40
60019;BME280;45870;42.528;26.740;2022-11-18T06:16:28;98710.06;;;16.53;48.07
60019;BME280;45870;42.528;26.740;2022-11-18T06:18:55;98759.59;;;16.60;48.81
60019;BME280;45870;42.528;26.740;2022-11-18T06:21:22;98700.47;;;16.60;49.00
60019;BME280;45870;42.528;26.740;2022-11-18T06:23:50;98768.03;;;16.58;49.49
60019;BME280;45870;42.528;26.740;2022-11-18T06:26:16;98764.16;;;16.96;48.59
60019;BME280;45870;42.528;26.740;2022-11-18T06:28:44;98759.28;;;17.26;48.56
60019;BME280;45870;42.528;26.740;2022-11-18T06:31:11;98760.41;;;17.38;48.90
60019;BME280;45870;42.528;26.740;2022-11-18T06:33:37;98755.78;;;17.53;47.84
60019;BME280;45870;42.528;26.740;2022-11-18T06:36:02;98780.59;;;17.70;47.99
60019;BME280;45870;42.528;26.740;2022-11-18T06:38:28;98756.09;;;17.37;48.23
60019;BME280;45870;42.528;26.740;2022-11-18T06:40:58;98755.84;;;17.93;47.35
60019;BME280;45870;42.528;26.740;2022-11-18T06:43:24;98711.84;;;18.31;46.39
60019;BME280;45870;42.528;26.740;2022-11-18T06:46:09;98773.72;;;18.49;46.16
60019;BME280;45870;42.528;26.740;2022-11-18T06:48:53;98769.63;;;18.74;47.51
60019;BME280;45870;42.528;26.740;2022-11-18T06:51:19;98775.34;;;17.87;48.57
60019;BME280;45870;42.528;26.740;2022-11-18T06:53:45;98774.00;;;18.75;47.80
60019;BME280;45870;42.528;26.740;2022-11-18T06:56:13;98732.44;;;18.15;46.20
60019;BME280;45870;42.528;26.740;2022-11-18T06:58:39;98764.56;;;16.53;52.10
60019;BME280;45870;42.528;26.740;2022-11-18T07:01:10;98766.75;;;17.93;47.92
60019;BME280;45870;42.528;26.740;2022-11-18T07:03:38;98759.78;;;18.37;47.38
60019;BME280;45870;42.528;26.740;2022-11-18T07:06:04;98770.13;;;18.98;46.31
60019;BME280;45870;42.528;26.740;2022-11-18T07:08:30;98765.13;;;19.22;46.32
60019;BME280;45870;42.528;26.740;2022-11-18T07:10:55;98759.44;;;19.10;45.31
60019;BME280;45870;42.528;26.740;2022-11-18T07:13:21;98760.75;;;19.74;46.41
60019;BME280;45870;42.528;26.740;2022-11-18T07:15:47;98759.75;;;20.18;46.06
60019;BME280;45870;42.528;26.740;2022-11-18T07:18:12;98761.53;;;20.14;45.06
60019;BME280;45870;42.528;26.740;2022-11-18T07:20:38;98764.19;;;20.36;44.93
60019;BME280;45870;42.528;26.740;2022-11-18T07:23:04;98760.47;;;20.50;44.68
60019;BME280;45870;42.528;26.740;2022-11-18T07:25:29;98769.41;;;19.37;47.13
60019;BME280;45870;42.528;26.740;2022-11-18T07:27:55;98776.59;;;19.24;46.44
60019;BME280;45870;42.528;26.740;2022-11-18T07:30:22;98777.72;;;20.76;43.42
60019;BME280;45870;42.528;26.740;2022-11-18T07:32:48;98773.06;;;20.85;43.49
60019;BME280;45870;42.528;26.740;2022-11-18T07:35:14;98779.59;;;20.15;44.37
60019;BME280;45870;42.528;26.740;2022-11-18T07:37:41;98776.22;;;15.73;54.97
60019;BME280;45870;42.528;26.740;2022-11-18T07:40:08;98780.50;;;14.59;59.39
60019;BME280;45870;42.528;26.740;2022-11-18T07:42:33;98773.69;;;15.58;55.45
60019;BME280;45870;42.528;26.740;2022-11-18T07:45:12;98767.88;;;16.68;53.54
60019;BME280;45870;42.528;26.740;2022-11-18T07:47:38;98768.44;;;18.03;50.72
60019;BME280;45870;42.528;26.740;2022-11-18T07:50:04;98760.66;;;19.26;46.98
60019;BME280;45870;42.528;26.740;2022-11-18T07:52:30;98759.72;;;20.01;45.34
60019;BME280;45870;42.528;26.740;2022-11-18T07:54:56;98724.72;;;19.41;44.85
60019;BME280;45870;42.528;26.740;2022-11-18T07:57:21;98745.81;;;19.89;46.06
60019;BME280;45870;42.528;26.740;2022-11-18T07:59:47;98742.56;;;20.95;42.93
60019;BME280;45870;42.528;26.740;2022-11-18T08:02:13;98742.25;;;20.97;43.39
60019;BME280;45870;42.528;26.740;2022-11-18T08:04:38;98741.63;;;20.57;43.21
60019;BME280;45870;42.528;26.740;2022-11-18T08:07:08;98741.53;;;20.05;45.96
60019;BME280;45870;42.528;26.740;2022-11-18T08:09:34;98734.81;;;21.14;43.54
60019;BME280;45870;42.528;26.740;2022-11-18T08:11:59;98731.06;;;20.07;46.65
60019;BME280;45870;42.528;26.740;2022-11-18T08:14:26;98664.84;;;18.56;49.01
60019;BME280;45870;42.528;26.740;2022-11-18T08:16:54;98734.47;;;19.03;49.22
60019;BME280;45870;42.528;26.740;2022-11-18T08:19:20;98658.38;;;18.16;50.15
60019;BME280;45870;42.528;26.740;2022-11-18T08:21:45;98733.94;;;19.46;48.34
60019;BME280;45870;42.528;26.740;2022-11-18T08:24:11;98737.13;;;19.95;47.26
60019;BME280;45870;42.528;26.740;2022-11-18T08:26:37;98739.50;;;19.10;49.83
60019;BME280;45870;42.528;26.740;2022-11-18T08:29:03;98738.97;;;19.30;49.29
60019;BME280;45870;42.528;26.740;2022-11-18T08:31:29;98743.34;;;21.04;45.40
60019;BME280;45870;42.528;26.740;2022-11-18T08:34:05;98748.81;;;21.30;45.11
60019;BME280;45870;42.528;26.740;2022-11-18T08:36:33;98747.34;;;20.21;48.26
60019;BME280;45870;42.528;26.740;2022-11-18T08:39:01;98738.53;;;20.92;47.05
60019;BME280;45870;42.528;26.740;2022-11-18T08:41:40;98717.09;;;20.52;47.56
60019;BME280;45870;42.528;26.740;2022-11-18T08:44:06;98732.38;;;20.87;47.12
60019;BME280;45870;42.528;26.740;2022-11-18T08:46:33;98754.78;;;21.32;46.71
60019;BME280;45870;42.528;26.740;2022-11-18T08:48:58;98751.59;;;21.13;47.30
60019;BME280;45870;42.528;26.740;2022-11-18T08:51:24;98674.09;;;21.24;46.47
60019;BME280;45870;42.528;26.740;2022-11-18T08:53:50;98750.13;;;21.15;47.75
60019;BME280;45870;42.528;26.740;2022-11-18T08:56:20;98723.50;;;21.07;47.70
60019;BME280;45870;42.528;26.740;2022-11-18T08:58:46;98738.25;;;18.93;53.93
60019;BME280;45870;42.528;26.740;2022-11-18T09:01:12;98737.13;;;19.95;51.49
60019;BME280;45870;42.528;26.740;2022-11-18T09:03:39;98734.50;;;19.73;51.35
60019;BME280;45870;42.528;26.740;2022-11-18T09:06:10;98678.03;;;20.20;49.68
60019;BME280;45870;42.528;26.740;2022-11-18T09:08:38;98701.31;;;20.57;50.37
60019;BME280;45870;42.528;26.740;2022-11-18T09:11:18;98731.94;;;20.42;49.44
60019;BME280;45870;42.528;26.740;2022-11-18T09:13:45;98683.59;;;21.27;47.18
60019;BME280;45870;42.528;26.740;2022-11-18T09:16:12;98712.78;;;22.28;45.69
60019;BME280;45870;42.528;26.740;2022-11-18T09:18:38;98724.75;;;22.03;45.65
60019;BME280;45870;42.528;26.740;2022-11-18T09:21:07;98719.66;;;20.74;50.08
60019;BME280;45870;42.528;26.740;2022-11-18T09:23:34;98724.47;;;21.11;49.21
60019;BME280;45870;42.528;26.740;2022-11-18T09:26:09;98724.72;;;22.11;46.28
60019;BME280;45870;42.528;26.740;2022-11-18T09:28:35;98721.94;;;21.53;48.04
60019;BME280;45870;42.528;26.740;2022-11-18T09:31:10;98722.38;;;22.01;46.34
60019;BME280;45870;42.528;26.740;2022-11-18T09:33:37;98723.81;;;22.90;44.44
60019;BME280;45870;42.528;26.740;2022-11-18T09:36:04;98723.75;;;21.78;47.82
60019;BME280;45870;42.528;26.740;2022-11-18T09:38:31;98567.09;;;21.95;44.32
60019;BME280;45870;42.528;26.740;2022-11-18T09:41:06;98722.00;;;22.53;46.83
60019;BME280;45870;42.528;26.740;2022-11-18T09:46:36;98690.44;;;22.92;46.01
60019;BME280;45870;42.528;26.740;2022-11-18T09:49:14;98690.06;;;22.60;46.14
60019;BME280;45870;42.528;26.740;2022-11-18T09:51:44;98670.03;;;21.98;47.40
60019;BME280;45870;42.528;26.740;2022-11-18T09:54:24;98629.72;;;21.81;47.45
60019;BME280;45870;42.528;26.740;2022-11-18T09:56:51;98685.59;;;21.56;49.17
60019;BME280;45870;42.528;26.740;2022-11-18T09:59:19;98622.09;;;22.07;46.72
60019;BME280;45870;42.528;26.740;2022-11-18T10:01:47;98661.25;;;22.04;48.17
60019;BME280;45870;42.528;26.740;2022-11-18T10:04:15;98670.75;;;21.48;49.70
60019;BME280;45870;42.528;26.740;2022-11-18T10:06:41;98669.25;;;23.49;44.27
60019;BME280;45870;42.528;26.740;2022-11-18T10:17:23;98657.78;;;24.91;41.17
60019;BME280;45870;42.528;26.740;2022-11-18T10:22:48;98658.41;;;25.59;40.61
60019;BME280;45870;42.528;26.740;2022-11-18T10:25:17;98664.50;;;23.37;44.57
60019;BME280;45870;42.528;26.740;2022-11-18T10:27:45;98618.53;;;22.07;48.40
60019;BME280;45870;42.528;26.740;2022-11-18T10:30:22;98665.13;;;22.65;47.22
60019;BME280;45870;42.528;26.740;2022-11-18T10:33:00;98658.16;;;22.68;46.64
60019;BME280;45870;42.528;26.740;2022-11-18T10:35:30;98644.66;;;24.72;41.64
60019;BME280;45870;42.528;26.740;2022-11-18T10:46:22;98633.94;;;24.27;43.66
60019;BME280;45870;42.528;26.740;2022-11-18T10:51:43;98628.91;;;25.98;39.63
60019;BME280;45870;42.528;26.740;2022-11-18T10:56:55;98623.13;;;24.10;43.56
60019;BME280;45870;42.528;26.740;2022-11-18T11:02:20;98532.75;;;24.75;41.75
60019;BME280;45870;42.528;26.740;2022-11-18T11:04:50;98590.81;;;23.22;45.75
60019;BME280;45870;42.528;26.740;2022-11-18T11:07:30;98618.56;;;25.29;42.56
60019;BME280;45870;42.528;26.740;2022-11-18T11:12:37;98615.50;;;23.92;45.64
60019;BME280;45870;42.528;26.740;2022-11-18T11:15:23;98600.91;;;25.49;42.01
60019;BME280;45870;42.528;26.740;2022-11-18T11:17:58;98567.16;;;24.93;42.89
60019;BME280;45870;42.528;26.740;2022-11-18T11:20:42;98602.22;;;24.09;44.99
60019;BME280;45870;42.528;26.740;2022-11-18T11:23:09;98592.16;;;24.13;45.39
60019;BME280;45870;42.528;26.740;2022-11-18T11:25:42;98556.50;;;24.64;43.18
60019;BME280;45870;42.528;26.740;2022-11-18T11:28:39;98505.88;;;25.19;42.16
60019;BME280;45870;42.528;26.740;2022-11-18T11:31:25;98574.94;;;23.92;44.99
60019;BME280;45870;42.528;26.740;2022-11-18T11:34:24;98577.72;;;27.07;38.14
60019;BME280;45870;42.528;26.740;2022-11-18T11:45:17;98572.16;;;25.69;41.25
60019;BME280;45870;42.528;26.740;2022-11-18T11:48:10;98562.38;;;25.91;40.46
60019;BME280;45870;42.528;26.740;2022-11-18T11:50:49;98532.28;;;24.14;44.82
60019;BME280;45870;42.528;26.740;2022-11-18T11:58:53;98534.25;;;24.01;45.55
60019;BME280;45870;42.528;26.740;2022-11-18T12:01:33;98532.34;;;25.04;43.51
60019;BME280;45870;42.528;26.740;2022-11-18T12:06:54;98504.47;;;25.98;41.10
60019;BME280;45870;42.528;26.740;2022-11-18T12:11:54;98503.31;;;27.55;37.99
60019;BME280;45870;42.528;26.740;2022-11-18T12:17:21;98481.38;;;27.20;38.65
60019;BME280;45870;42.528;26.740;2022-11-18T12:19:49;98497.44;;;27.34;38.89
60019;BME280;45870;42.528;26.740;2022-11-18T12:22:14;98495.59;;;26.27;40.61
60019;BME280;45870;42.528;26.740;2022-11-18T12:24:41;98435.94;;;25.50;41.83
60019;BME280;45870;42.528;26.740;2022-11-18T12:27:13;98354.78;;;25.39;41.32
60019;BME280;45870;42.528;26.740;2022-11-18T12:29:53;98480.81;;;26.01;41.68
60019;BME280;45870;42.528;26.740;2022-11-18T12:32:33;98484.19;;;23.99;46.44
60019;BME280;45870;42.528;26.740;2022-11-18T12:37:56;98482.72;;;25.77;41.90
60019;BME280;45870;42.528;26.740;2022-11-18T12:40:38;98483.00;;;23.45;47.27
60019;BME280;45870;42.528;26.740;2022-11-18T12:43:05;98481.94;;;23.89;46.39
60019;BME280;45870;42.528;26.740;2022-11-18T12:45:55;98424.69;;;22.78;48.37
60019;BME280;45870;42.528;26.740;2022-11-18T12:48:34;98488.88;;;25.01;44.03
60019;BME280;45870;42.528;26.740;2022-11-18T12:55:59;98412.59;;;25.47;41.90
60019;BME280;45870;42.528;26.740;2022-11-18T12:58:26;98469.75;;;24.77;44.37
60019;BME280;45870;42.528;26.740;2022-11-18T13:01:08;98425.91;;;25.99;41.41
60019;BME280;45870;42.528;26.740;2022-11-18T13:03:35;98437.75;;;26.19;40.64
60019;BME280;45870;42.528;26.740;2022-11-18T13:06:05;98458.34;;;25.64;42.08
60019;BME280;45870;42.528;26.740;2022-11-18T13:08:32;98471.38;;;25.13;43.31
60019;BME280;45870;42.528;26.740;2022-11-18T13:11:06;98467.47;;;25.29;43.09
60019;BME280;45870;42.528;26.740;2022-11-18T13:13:53;98400.75;;;25.66;41.47
60019;BME280;45870;42.528;26.740;2022-11-18T13:16:39;98441.84;;;25.67;41.89
60019;BME280;45870;42.528;26.740;2022-11-18T13:19:24;98425.16;;;24.59;44.77
60019;BME280;45870;42.528;26.740;2022-11-18T13:21:54;98460.19;;;24.43;45.22
60019;BME280;45870;42.528;26.740;2022-11-18T13:24:44;98471.91;;;23.69;46.79
60019;BME280;45870;42.528;26.740;2022-11-18T13:27:20;98469.72;;;24.61;45.11
60019;BME280;45870;42.528;26.740;2022-11-18T13:30:05;98464.47;;;24.41;45.16
60019;BME280;45870;42.528;26.740;2022-11-18T13:32:34;98320.16;;;23.18;46.43
60019;BME280;45870;42.528;26.740;2022-11-18T13:35:19;98444.81;;;25.59;42.72
60019;BME280;45870;42.528;26.740;2022-11-18T13:37:52;98443.19;;;26.35;40.95
60019;BME280;45870;42.528;26.740;2022-11-18T13:42:49;98438.72;;;26.75;39.47
60019;BME280;45870;42.528;26.740;2022-11-18T13:45:16;98322.75;;;27.56;36.10
60019;BME280;45870;42.528;26.740;2022-11-18T13:47:49;98426.88;;;27.27;38.41
60019;BME280;45870;42.528;26.740;2022-11-18T13:50:34;98277.09;;;28.27;34.52
60019;BME280;45870;42.528;26.740;2022-11-18T13:53:25;98426.09;;;29.18;34.53
60019;BME280;45870;42.528;26.740;2022-11-18T13:56:00;98438.28;;;29.03;34.88
60019;BME280;45870;42.528;26.740;2022-11-18T13:58:34;98428.63;;;30.45;32.41
60019;BME280;45870;42.528;26.740;2022-11-18T14:01:16;98422.50;;;31.67;30.15
60019;BME280;45870;42.528;26.740;2022-11-18T14:03:47;98429.34;;;31.59;30.09
60019;BME280;45870;42.528;26.740;2022-11-18T14:06:33;98417.81;;;30.19;32.27
60019;BME280;45870;42.528;26.740;2022-11-18T14:09:26;98425.09;;;28.42;36.11
60019;BME280;45870;42.528;26.740;2022-11-18T14:14:32;98427.50;;;27.44;38.08
60019;BME280;45870;42.528;26.740;2022-11-18T14:19:48;98370.03;;;27.70;37.02
60019;BME280;45870;42.528;26.740;2022-11-18T14:22:20;98402.97;;;27.16;38.60
60019;BME280;45870;42.528;26.740;2022-11-18T14:24:57;98411.69;;;28.07;36.73
60019;BME280;45870;42.528;26.740;2022-11-18T14:27:37;98396.41;;;28.27;35.95
60019;BME280;45870;42.528;26.740;2022-11-18T14:30:33;98398.31;;;27.23;37.99
60019;BME280;45870;42.528;26.740;2022-11-18T14:33:26;98382.19;;;26.76;38.78
60019;BME280;45870;42.528;26.740;2022-11-18T14:36:07;98379.16;;;26.36;39.65
60019;BME280;45870;42.528;26.740;2022-11-18T14:41:02;98409.53;;;25.91;40.60
60019;BME280;45870;42.528;26.740;2022-11-18T14:43:29;98412.69;;;25.89;41.18
60019;BME280;45870;42.528;26.740;2022-11-18T14:45:58;98369.28;;;25.93;40.47